• Join FlightAware (Why Join?)
  • Login
  • US Flag 
02:24AM EDT


 

Airport Tracker/Info


-or-


 

Live Flight TrackerFlight Track Log ✈ N904ER ✈ 27-Aug-2013 ✈ KSSI - KDAB

Flight Track Log - Related Links

Times and Time Zones

All times are in EDT time to prevent confusion due to time zone crossing. See the N904ER flight status page for this flight to view local times or setup timezone preferences in your user account.

Time Position Orientation Groundspeed Altitude Reporting Facility
EDT Latitude Longitude Course Direction KTS MPH feet Rate Location/Type
12:01PM 30.9303 -81.4225 196° South 126 145 5,400  Level Jacksonville Center
12:02PM 30.8844 -81.4208 178° South 138 159 6,200 300 Climbing Jacksonville Center
12:03PM 30.8467 -81.4117 168° South 175 201 6,100 -180 Descending Jacksonville Center
12:04PM 30.7964 -81.4028 171° South 163 188 5,900 -120 Descending Jacksonville Center
12:05PM 30.7525 -81.3939 170° South 160 184 5,900  Level Jacksonville Center
12:06PM 30.9901 -81.4333 180° South  Level FlightAware Approximate
12:06PM 30.7064 -81.3872 173° South 164 189 5,900  Level Jacksonville Center
12:06PM 30.7064 -81.3872 173° South 159 183 5,900  Level Jacksonville Center
12:07PM 30.6625 -81.3758 167° South 159 183 5,900  Level Jacksonville Center
12:08PM 30.6206 -81.3669 170° South 159 183 6,000  Climbing Jacksonville Center
12:09PM 30.5767 -81.3581 170° South 159 183 5,900  Descending Jacksonville Center
12:10PM 30.5328 -81.3467 167° South 159 183 6,100  Climbing Jacksonville Center
12:11PM 30.4889 -81.3378 170° South 157 181 5,900 -120 Descending Jacksonville Center
12:12PM 30.4428 -81.3311 173° South 160 184 5,900  Level Jacksonville Center
12:13PM 30.3989 -81.3247 173° South 157 181 5,900  Level Jacksonville Center
12:14PM 30.3528 -81.3183 173° South 158 182 6,000  Climbing Jacksonville Center
12:15PM 30.3089 -81.3094 170° South 154 177 5,900 -60 Descending Jacksonville Center
12:16PM 30.2669 -81.2981 167° South 159 183 5,900  Level Jacksonville Center
12:17PM 30.2253 -81.2914 172° South 156 180 5,900  Level Jacksonville Center
12:18PM 30.1833 -81.2825 170° South 162 186 5,900  Level Jacksonville Center
12:19PM 30.1394 -81.2761 173° South 152 175 6,000 120 Climbing Jacksonville Center
12:20PM 30.0953 -81.2672 170° South 159 183 6,200  Climbing Jacksonville Center
12:21PM 30.0494 -81.2608 173° South 159 183 6,100 -180 Descending Jacksonville Center
12:22PM 30.0014 -81.2544 173° South 167 192 5,900 -120 Descending Jacksonville Center
12:23PM 29.9572 -81.2456 170° South 168 193 5,900  Level Jacksonville Center
12:24PM 29.9194 -81.2319 163° South 149 171 5,900 60 Level Jacksonville Center
12:25PM 29.8819 -81.2253 171° South 161 185 6,100 60 Climbing Jacksonville Center
12:26PM 29.8442 -81.2139 165° South 164 189 6,100 -60 Level Jacksonville Center
12:27PM 29.7983 -81.2125 178° South 164 189 6,000 -300 Descending Jacksonville Center
12:28PM 29.7522 -81.2061 173° South 169 194 5,500 -600 Descending Jacksonville Center
12:29PM 29.7042 -81.1972 171° South 170 196 4,800 -660 Descending Jacksonville Center
12:30PM 29.6517 -81.1886 172° South 166 191 4,100 -480 Descending Jacksonville Center
12:31PM 29.6119 -81.1844 175° South 158 182 3,900 -60 Descending Jacksonville Center
12:32PM 29.5681 -81.1733 168° South 154 177 4,000  Climbing Jacksonville Center
12:33PM 29.5219 -81.1647 171° South 150 173 4,000 -300 Level Jacksonville Center
12:34PM 29.4781 -81.1583 173° South 160 184 3,400 -540 Descending Jacksonville Center
12:35PM 29.4364 -81.1494 169° South 152 175 3,000 -180 Descending Jacksonville Center
12:36PM 29.4050 -81.1475 177° South 119 137 3,100 -240 Climbing Jacksonville Center
12:37PM 29.3694 -81.1436 175° South 119 137 2,600 -720 Descending Jacksonville Center
12:38PM 29.3317 -81.1322 165° South 138 159 1,600 -540 Descending Jacksonville Center
12:39PM 29.3064 -81.1161 151° Southeast 114 131 1,600  Level Jacksonville Center
12:40PM 29.2728 -81.1000 157° South 108 124 1,600 -60 Level Jacksonville Center
12:41PM 29.2517 -81.0908 159° South 106 122 1,500 -360 Descending Jacksonville Center
12:42PM 29.2203 -81.0747 156° South 96 110 900 -420 Descending Jacksonville Center
12:43PM 29.1969 -81.0633 157° South 101 116 700 -180 Descending Jacksonville Center
12:44PM 29.1808 -81.0897 235° Southwest 113 130 600 -120 Descending Jacksonville Center
12:46PM 29.1799 -81.0581 161° South  Level Estimated
12:53PM 29.1799 -81.0581 161° South  Level Estimated
12:54PM 29.1799 -81.0581 161° South  Level Estimated
12:55PM 29.1799 -81.0581 161° South  Level Estimated